createdAt,value
2019-04-30T00:00:43.201Z,13.22
2019-04-30T00:01:43.188Z,13.24
2019-04-30T00:02:45.302Z,13.29
2019-04-30T00:03:43.175Z,13.21
2019-04-30T00:04:45.161Z,13.21
2019-04-30T00:05:44.995Z,13.27
2019-04-30T00:06:43.161Z,13.27
2019-04-30T00:07:43.156Z,13.32
2019-04-30T00:08:45.051Z,13.21
2019-04-30T00:09:44.866Z,13.14
2019-04-30T00:10:43.132Z,13.28
2019-04-30T00:11:43.130Z,13.28
2019-04-30T00:12:43.125Z,13.32
2019-04-30T00:13:43.144Z,13.27
2019-04-30T00:14:44.838Z,13.32
2019-04-30T00:15:43.114Z,13.24
2019-04-30T00:16:45.043Z,13.28
2019-04-30T00:17:43.099Z,13.27
2019-04-30T00:18:55.392Z,13.29
2019-04-30T00:19:43.084Z,13.32
2019-04-30T00:20:45.296Z,13.22
2019-04-30T00:21:43.066Z,13.29
2019-04-30T00:22:47.181Z,13.27
2019-04-30T00:23:43.056Z,13.21
2019-04-30T00:24:46.894Z,13.25
2019-04-30T00:25:43.097Z,13.28
2019-04-30T00:26:45.043Z,13.27
2019-04-30T00:27:43.051Z,13.31
2019-04-30T00:28:44.369Z,13.31
2019-04-30T00:29:43.023Z,13.29
2019-04-30T00:30:43.985Z,13.32
2019-04-30T00:31:44.701Z,13.28
2019-04-30T00:32:44.014Z,13.28
2019-04-30T00:33:44.920Z,13.28
2019-04-30T00:34:42.995Z,13.39
2019-04-30T00:35:42.987Z,13.29
2019-04-30T00:36:42.978Z,13.35
2019-04-30T00:37:42.978Z,13.28
2019-04-30T00:38:44.727Z,13.21
2019-04-30T00:39:44.343Z,13.24
2019-04-30T00:40:44.684Z,13.31
2019-04-30T00:41:45.920Z,13.27
2019-04-30T00:42:42.946Z,13.28
2019-04-30T00:43:49.284Z,13.25
2019-04-30T00:44:42.931Z,13.27
2019-04-30T00:45:44.854Z,13.27
2019-04-30T00:46:42.925Z,13.19
2019-04-30T00:47:44.541Z,13.27
2019-04-30T00:48:42.907Z,13.35
2019-04-30T00:49:42.907Z,13.25
2019-04-30T00:50:42.900Z,13.31
2019-04-30T00:51:42.899Z,13.35
2019-04-30T00:52:42.891Z,13.28
2019-04-30T00:53:43.806Z,13.27
2019-04-30T00:54:42.876Z,13.29
2019-04-30T00:55:44.999Z,13.29
2019-04-30T00:56:42.863Z,13.38
2019-04-30T00:57:43.931Z,13.38
2019-04-30T00:58:42.855Z,13.29
2019-04-30T00:59:46.532Z,13.25
2019-04-30T01:00:42.840Z,13.31
2019-04-30T01:01:44.295Z,13.35
2019-04-30T01:02:42.823Z,13.27
2019-04-30T01:03:46.434Z,13.35
2019-04-30T01:04:44.865Z,13.27
2019-04-30T01:05:46.491Z,13.31
2019-04-30T01:06:42.800Z,13.28
2019-04-30T01:07:48.687Z,13.29
2019-04-30T01:08:42.792Z,13.27
2019-04-30T01:09:46.517Z,13.24
2019-04-30T01:10:42.783Z,13.19
2019-04-30T01:11:46.934Z,13.16
2019-04-30T01:12:47.347Z,13.17
2019-04-30T01:13:50.206Z,13.16
2019-04-30T01:14:42.758Z,13.22
2019-04-30T01:15:43.966Z,13.28
2019-04-30T01:16:42.741Z,13.19
2019-04-30T01:17:45.298Z,13.19
2019-04-30T01:18:42.733Z,13.24
2019-04-30T01:19:45.921Z,13.27
2019-04-30T01:20:42.717Z,13.22
2019-04-30T01:21:47.014Z,13.25
2019-04-30T01:22:42.710Z,13.22
2019-04-30T01:23:51.861Z,13.27
2019-04-30T01:24:42.699Z,13.28
2019-04-30T01:25:43.155Z,13.25
2019-04-30T01:26:42.684Z,13.29
2019-04-30T01:27:45.582Z,13.27
2019-04-30T01:28:42.672Z,13.32
2019-04-30T01:29:44.358Z,13.27
2019-04-30T01:30:42.663Z,13.38
2019-04-30T01:31:42.656Z,13.27
2019-04-30T01:32:42.650Z,13.35
2019-04-30T01:33:42.638Z,13.22
2019-04-30T01:34:44.233Z,13.29
2019-04-30T01:35:42.632Z,13.24
2019-04-30T01:36:43.526Z,13.21
2019-04-30T01:37:42.627Z,13.29
2019-04-30T01:38:44.807Z,13.14
2019-04-30T01:39:42.605Z,13.27
2019-04-30T01:40:46.976Z,13.24
2019-04-30T01:41:42.597Z,13.25
2019-04-30T01:42:47.990Z,13.17
2019-04-30T01:43:42.584Z,13.16
2019-04-30T01:44:43.572Z,13.25
2019-04-30T01:45:42.566Z,13.24
2019-04-30T01:46:43.289Z,13.17
2019-04-30T01:47:42.557Z,13.19
2019-04-30T01:48:43.670Z,13.19
2019-04-30T01:49:44.771Z,13.16
2019-04-30T01:50:42.543Z,13.13
2019-04-30T01:51:42.535Z,13.21
2019-04-30T01:52:42.528Z,13.19
2019-04-30T01:53:43.585Z,13.17
2019-04-30T01:54:42.520Z,13.14
2019-04-30T01:55:42.513Z,13.13
2019-04-30T01:56:42.507Z,13.16
2019-04-30T01:57:42.495Z,13.14
2019-04-30T01:58:42.490Z,13.13
2019-04-30T01:59:42.482Z,13.16
2019-04-30T02:00:42.476Z,13.21
2019-04-30T02:01:42.475Z,13.17
2019-04-30T02:02:42.469Z,13.21
2019-04-30T02:03:42.466Z,13.14
2019-04-30T02:04:42.460Z,13.10
2019-04-30T02:05:42.449Z,13.07
2019-04-30T02:06:42.442Z,13.07
2019-04-30T02:07:42.441Z,13.07
2019-04-30T02:08:42.439Z,12.99
2019-04-30T02:09:42.423Z,12.99
2019-04-30T02:10:42.420Z,12.95
2019-04-30T02:11:42.411Z,13.01
2019-04-30T02:12:42.404Z,13.01
2019-04-30T02:13:42.406Z,13.04
2019-04-30T02:14:42.397Z,13.01
2019-04-30T02:15:42.391Z,12.99
2019-04-30T02:16:42.385Z,13.03
2019-04-30T02:17:42.373Z,12.98
2019-04-30T02:18:42.368Z,12.95
2019-04-30T02:19:53.661Z,12.98
2019-04-30T02:20:42.359Z,13.03
2019-04-30T02:21:42.356Z,13.06
2019-04-30T02:22:42.349Z,13.04
2019-04-30T02:23:42.345Z,13.01
2019-04-30T02:24:42.333Z,13.06
2019-04-30T02:25:42.331Z,13.04
2019-04-30T02:26:42.326Z,13.03
2019-04-30T02:27:42.316Z,13.01
2019-04-30T02:28:42.309Z,13.06
2019-04-30T02:29:42.300Z,12.99
2019-04-30T02:30:42.296Z,13.07
2019-04-30T02:31:42.290Z,13.04
2019-04-30T02:32:42.288Z,13.06
2019-04-30T02:33:42.291Z,13.06
2019-04-30T02:34:44.199Z,13.07
2019-04-30T02:35:42.269Z,13.12
2019-04-30T02:36:42.266Z,13.04
2019-04-30T02:37:43.460Z,13.07
2019-04-30T02:38:42.249Z,13.04
2019-04-30T02:39:42.249Z,13.04
2019-04-30T02:40:42.679Z,12.99
2019-04-30T02:41:42.228Z,12.96
2019-04-30T02:42:42.226Z,12.92
2019-04-30T02:43:42.212Z,12.95
2019-04-30T02:44:42.207Z,12.94
2019-04-30T02:45:42.228Z,12.95
2019-04-30T02:46:42.199Z,12.96
2019-04-30T02:47:42.192Z,12.92
2019-04-30T02:48:42.187Z,12.91
2019-04-30T02:49:42.183Z,12.95
2019-04-30T02:50:42.176Z,12.89
2019-04-30T02:51:42.168Z,12.89
2019-04-30T02:52:42.175Z,12.98
2019-04-30T02:53:42.150Z,12.94
2019-04-30T02:54:42.146Z,12.95
2019-04-30T02:55:42.143Z,12.92
2019-04-30T02:56:42.137Z,12.94
2019-04-30T02:57:42.126Z,12.92
2019-04-30T02:58:42.120Z,12.96
2019-04-30T02:59:42.116Z,12.89
2019-04-30T03:00:42.111Z,12.99
2019-04-30T03:01:42.107Z,12.94
2019-04-30T03:02:42.101Z,12.94
2019-04-30T03:03:42.664Z,12.94
2019-04-30T03:04:42.091Z,12.99
2019-04-30T03:05:42.080Z,12.98
2019-04-30T03:06:42.074Z,12.92
2019-04-30T03:07:42.065Z,12.92
2019-04-30T03:08:42.060Z,13.03
2019-04-30T03:09:42.055Z,12.98
2019-04-30T03:10:42.076Z,12.94
2019-04-30T03:11:42.038Z,12.92
2019-04-30T03:12:42.038Z,13.04
2019-04-30T03:13:42.854Z,13.03
2019-04-30T03:14:42.024Z,12.96
2019-04-30T03:15:42.021Z,12.91
2019-04-30T03:16:42.016Z,12.85
2019-04-30T03:17:42.003Z,12.91
2019-04-30T03:18:41.998Z,12.88
2019-04-30T03:19:41.991Z,12.95
2019-04-30T03:20:41.987Z,12.92
2019-04-30T03:21:41.982Z,12.89
2019-04-30T03:22:42.000Z,12.91
2019-04-30T03:23:41.968Z,12.84
2019-04-30T03:24:42.941Z,12.84
2019-04-30T03:25:41.974Z,12.87
2019-04-30T03:26:41.944Z,12.87
2019-04-30T03:27:42.566Z,12.80
2019-04-30T03:28:41.939Z,12.79
2019-04-30T03:29:41.925Z,12.81
2019-04-30T03:30:42.644Z,12.79
2019-04-30T03:31:45.124Z,12.70
2019-04-30T03:32:43.033Z,12.69
2019-04-30T03:33:42.744Z,12.67
2019-04-30T03:34:42.805Z,12.67
2019-04-30T03:35:47.837Z,12.67
2019-04-30T03:36:41.889Z,12.63
2019-04-30T03:37:41.877Z,12.77
2019-04-30T03:38:42.806Z,12.77
2019-04-30T03:39:41.868Z,12.76
2019-04-30T03:40:41.863Z,12.79
2019-04-30T03:41:41.886Z,12.70
2019-04-30T03:42:41.848Z,12.79
2019-04-30T03:43:41.837Z,12.80
2019-04-30T03:44:41.830Z,12.77
2019-04-30T03:45:41.831Z,12.81
2019-04-30T03:46:41.826Z,12.79
2019-04-30T03:47:43.158Z,12.77
2019-04-30T03:48:41.813Z,12.76
2019-04-30T03:49:41.813Z,12.77
2019-04-30T03:50:53.268Z,12.70
2019-04-30T03:51:41.787Z,12.69
2019-04-30T03:52:41.782Z,12.63
2019-04-30T03:53:42.689Z,12.62
2019-04-30T03:54:41.773Z,12.74
2019-04-30T03:55:41.769Z,12.71
2019-04-30T03:56:41.763Z,12.73
2019-04-30T03:57:41.752Z,12.71
2019-04-30T03:58:41.746Z,12.80
2019-04-30T03:59:41.751Z,12.80
2019-04-30T04:00:42.490Z,12.70
2019-04-30T04:01:41.726Z,12.79
2019-04-30T04:02:41.720Z,12.74
2019-04-30T04:03:42.266Z,12.76
2019-04-30T04:04:41.704Z,12.76
2019-04-30T04:05:41.702Z,12.77
2019-04-30T04:06:41.696Z,12.73
2019-04-30T04:07:41.689Z,12.84
2019-04-30T04:08:43.472Z,12.80
2019-04-30T04:09:41.672Z,12.76
2019-04-30T04:10:41.670Z,12.70
2019-04-30T04:11:41.664Z,12.74
2019-04-30T04:12:41.659Z,12.69
2019-04-30T04:13:41.665Z,12.70
2019-04-30T04:14:41.648Z,12.79
2019-04-30T04:15:41.637Z,12.70
2019-04-30T04:16:41.631Z,12.74
2019-04-30T04:17:41.651Z,12.73
2019-04-30T04:18:41.622Z,12.63
2019-04-30T04:19:41.633Z,12.67
2019-04-30T04:20:42.943Z,12.70
2019-04-30T04:21:41.600Z,12.73
2019-04-30T04:22:41.591Z,12.58
2019-04-30T04:23:41.587Z,12.67
2019-04-30T04:24:41.577Z,12.63
2019-04-30T04:25:41.574Z,12.59
2019-04-30T04:26:43.907Z,12.70
2019-04-30T04:27:41.566Z,12.67
2019-04-30T04:28:43.565Z,12.66
2019-04-30T04:29:41.557Z,12.67
2019-04-30T04:30:42.989Z,12.70
2019-04-30T04:31:41.538Z,12.63
2019-04-30T04:32:41.535Z,12.71
2019-04-30T04:33:41.522Z,12.61
2019-04-30T04:34:44.816Z,12.69
2019-04-30T04:35:41.507Z,12.61
2019-04-30T04:36:43.404Z,12.70
2019-04-30T04:37:41.498Z,12.52
2019-04-30T04:38:41.496Z,12.61
2019-04-30T04:39:42.106Z,12.61
2019-04-30T04:40:41.479Z,12.56
2019-04-30T04:41:44.168Z,12.54
2019-04-30T04:42:41.463Z,12.62
2019-04-30T04:43:41.458Z,12.58
2019-04-30T04:44:41.452Z,12.56
2019-04-30T04:45:43.779Z,12.66
2019-04-30T04:46:41.441Z,12.67
2019-04-30T04:47:41.432Z,12.62
2019-04-30T04:48:41.426Z,12.73
2019-04-30T04:49:41.423Z,12.66
2019-04-30T04:50:41.416Z,12.70
2019-04-30T04:51:42.296Z,12.71
2019-04-30T04:52:41.401Z,12.70
2019-04-30T04:53:41.390Z,12.63
2019-04-30T04:54:41.385Z,12.67
2019-04-30T04:55:41.389Z,12.67
2019-04-30T04:56:41.374Z,12.67
2019-04-30T04:57:41.371Z,12.71
2019-04-30T04:58:41.367Z,12.71
2019-04-30T04:59:42.538Z,12.71
2019-04-30T05:00:41.353Z,12.80
2019-04-30T05:01:41.340Z,12.70
2019-04-30T05:02:41.331Z,12.74
2019-04-30T05:03:41.331Z,12.74
2019-04-30T05:04:41.329Z,12.80
2019-04-30T05:05:41.314Z,12.79
2019-04-30T05:06:41.314Z,12.79
2019-04-30T05:07:41.304Z,12.84
2019-04-30T05:08:41.299Z,12.88
2019-04-30T05:09:41.295Z,12.87
2019-04-30T05:10:41.287Z,12.92
2019-04-30T05:11:41.281Z,12.98
2019-04-30T05:12:41.274Z,13.03
2019-04-30T05:13:41.266Z,12.99
2019-04-30T05:14:41.259Z,13.01
2019-04-30T05:15:41.249Z,13.04
2019-04-30T05:16:41.244Z,13.04
2019-04-30T05:17:41.241Z,13.06
2019-04-30T05:18:41.234Z,13.01
2019-04-30T05:19:41.226Z,13.10
2019-04-30T05:20:41.755Z,13.04
2019-04-30T05:21:44.544Z,13.06
2019-04-30T05:22:41.211Z,13.07
2019-04-30T05:23:42.674Z,12.98
2019-04-30T05:24:41.202Z,12.95
2019-04-30T05:25:41.190Z,12.96
2019-04-30T05:26:41.184Z,12.99
2019-04-30T05:27:41.180Z,12.98
2019-04-30T05:28:41.172Z,12.95
2019-04-30T05:29:41.173Z,13.03
2019-04-30T05:30:41.163Z,13.06
2019-04-30T05:31:41.155Z,13.10
2019-04-30T05:32:41.149Z,13.03
2019-04-30T05:33:41.142Z,13.09
2019-04-30T05:34:41.133Z,13.04
2019-04-30T05:35:41.131Z,13.06
2019-04-30T05:36:41.123Z,13.16
2019-04-30T05:37:41.113Z,13.12
2019-04-30T05:38:41.115Z,13.16
2019-04-30T05:39:41.103Z,13.22
2019-04-30T05:40:42.497Z,13.13
2019-04-30T05:41:41.225Z,13.12
2019-04-30T05:42:41.089Z,13.16
2019-04-30T05:43:41.084Z,13.10
2019-04-30T05:44:41.080Z,13.12
2019-04-30T05:45:41.067Z,13.06
2019-04-30T05:46:41.062Z,13.17
2019-04-30T05:47:41.055Z,13.25
2019-04-30T05:48:41.047Z,13.19
2019-04-30T05:49:41.049Z,13.13
2019-04-30T05:50:41.038Z,13.19
2019-04-30T05:51:52.880Z,13.17
2019-04-30T05:52:41.024Z,13.22
2019-04-30T05:53:41.022Z,13.21
2019-04-30T05:54:41.016Z,13.22
2019-04-30T05:55:41.013Z,13.16
2019-04-30T05:56:42.730Z,13.27
2019-04-30T05:57:53.136Z,13.21
2019-04-30T05:58:40.990Z,13.25
2019-04-30T05:59:40.985Z,13.25
2019-04-30T06:00:40.976Z,13.24
2019-04-30T06:01:47.873Z,13.35
2019-04-30T06:02:40.969Z,13.36
2019-04-30T06:03:40.965Z,13.35
2019-04-30T06:04:40.959Z,13.43
2019-04-30T06:05:40.951Z,13.36
2019-04-30T06:06:40.945Z,13.48
2019-04-30T06:07:40.942Z,13.50
2019-04-30T06:08:40.939Z,13.53
2019-04-30T06:09:40.927Z,13.65
2019-04-30T06:10:40.922Z,13.65
2019-04-30T06:11:40.914Z,13.66
2019-04-30T06:12:40.908Z,13.84
2019-04-30T06:13:40.907Z,13.83
2019-04-30T06:14:49.001Z,13.98
2019-04-30T06:15:40.894Z,14.01
2019-04-30T06:16:40.889Z,13.98
2019-04-30T06:17:40.880Z,14.06
2019-04-30T06:18:42.208Z,14.11
2019-04-30T06:19:40.871Z,14.34
2019-04-30T06:20:40.867Z,14.53
2019-04-30T06:21:40.864Z,14.72
2019-04-30T06:22:40.859Z,14.69
2019-04-30T06:23:40.852Z,14.91
2019-04-30T06:24:40.846Z,15.66
2019-04-30T06:25:55.314Z,16.57
2019-04-30T06:26:40.838Z,17.24
2019-04-30T06:27:40.834Z,18.04
2019-04-30T06:28:41.652Z,18.76
2019-04-30T06:29:40.823Z,19.52
2019-04-30T06:30:40.816Z,19.97
2019-04-30T06:31:43.166Z,19.89
2019-04-30T06:32:40.811Z,20.34
2019-04-30T06:33:40.810Z,20.78
2019-04-30T06:34:41.935Z,21.24
2019-04-30T06:35:40.809Z,21.55
2019-04-30T06:36:50.987Z,21.79
2019-04-30T06:37:40.801Z,21.09
2019-04-30T06:38:40.803Z,20.72
2019-04-30T06:39:40.807Z,20.68
2019-04-30T06:40:40.804Z,20.63
2019-04-30T06:41:41.070Z,20.54
2019-04-30T06:42:40.798Z,20.38
2019-04-30T06:43:40.795Z,20.61
2019-04-30T06:44:41.909Z,20.81
2019-04-30T06:45:40.801Z,20.81
2019-04-30T06:46:40.807Z,21.06
2019-04-30T06:47:40.804Z,21.43
2019-04-30T06:48:41.854Z,21.74
2019-04-30T06:49:40.799Z,22.09
2019-04-30T06:50:40.803Z,22.57
2019-04-30T06:51:40.807Z,23.19
2019-04-30T06:52:40.807Z,23.79
2019-04-30T06:53:40.812Z,23.31
2019-04-30T06:54:40.814Z,22.99
2019-04-30T06:55:40.814Z,22.64
2019-04-30T06:56:40.815Z,21.79
2019-04-30T06:57:40.820Z,22.15
2019-04-30T06:58:41.369Z,22.17
2019-04-30T06:59:40.823Z,21.94
2019-04-30T07:00:40.826Z,22.69
2019-04-30T07:01:40.822Z,23.45
2019-04-30T07:02:40.824Z,24.05
2019-04-30T07:03:40.826Z,23.71
2019-04-30T07:04:40.829Z,23.07
2019-04-30T07:05:40.836Z,22.89
2019-04-30T07:06:44.134Z,22.88
2019-04-30T07:07:41.750Z,23.64
2019-04-30T07:08:46.761Z,24.21
2019-04-30T07:09:52.146Z,24.23
2019-04-30T07:10:52.713Z,24.36
2019-04-30T07:11:40.855Z,24.55
2019-04-30T07:12:40.858Z,24.49
2019-04-30T07:13:40.856Z,25.31
2019-04-30T07:14:41.963Z,25.49
2019-04-30T07:15:40.861Z,25.53
2019-04-30T07:16:40.864Z,25.64
2019-04-30T07:17:40.876Z,25.63
2019-04-30T07:18:40.879Z,24.98
2019-04-30T07:19:53.478Z,24.49
2019-04-30T07:20:40.885Z,23.57
2019-04-30T07:21:42.903Z,23.69
2019-04-30T07:22:49.369Z,23.54
2019-04-30T07:23:40.898Z,23.78
2019-04-30T07:24:40.946Z,23.59
2019-04-30T07:25:40.910Z,22.82
2019-04-30T07:26:40.916Z,21.49
2019-04-30T07:27:40.920Z,20.81
2019-04-30T07:28:46.935Z,20.79
2019-04-30T07:29:40.926Z,20.27
2019-04-30T07:30:40.993Z,20.01
2019-04-30T07:31:40.934Z,19.64
2019-04-30T07:32:40.939Z,19.24
2019-04-30T07:33:40.935Z,19.30
2019-04-30T07:34:40.939Z,19.43
2019-04-30T07:35:40.943Z,19.34
2019-04-30T07:36:46.800Z,19.17
2019-04-30T07:37:40.951Z,19.21
2019-04-30T07:38:51.710Z,19.24
2019-04-30T07:39:40.960Z,19.20
2019-04-30T07:40:40.962Z,19.24
2019-04-30T07:41:40.959Z,19.25
2019-04-30T07:42:44.916Z,19.46
2019-04-30T07:43:40.968Z,19.79
2019-04-30T07:44:40.967Z,19.78
2019-04-30T07:45:40.976Z,19.80
2019-04-30T07:46:45.254Z,19.70
2019-04-30T07:47:40.965Z,19.61
2019-04-30T07:48:40.967Z,19.62
2019-04-30T07:49:50.905Z,19.61
2019-04-30T07:50:41.759Z,19.57
2019-04-30T07:51:42.075Z,19.65
2019-04-30T07:52:58.154Z,19.57
2019-04-30T07:53:40.969Z,19.79
2019-04-30T07:54:40.971Z,20.34
2019-04-30T07:55:40.976Z,21.56
2019-04-30T07:56:41.842Z,22.52
2019-04-30T07:57:40.980Z,23.62
2019-04-30T07:58:40.980Z,23.47
2019-04-30T07:59:40.978Z,23.18
2019-04-30T08:00:40.982Z,22.91
2019-04-30T08:02:00.614Z,22.74
2019-04-30T08:02:43.684Z,22.59
2019-04-30T08:03:41.404Z,22.52
2019-04-30T08:04:40.988Z,22.66
2019-04-30T08:05:40.989Z,23.03
2019-04-30T08:06:41.041Z,24.30
2019-04-30T08:07:41.058Z,25.12
2019-04-30T08:08:41.232Z,24.94
2019-04-30T08:09:42.282Z,25.17
2019-04-30T08:10:41.005Z,26.11
2019-04-30T08:11:43.413Z,27.05
2019-04-30T08:12:43.453Z,28.03
2019-04-30T08:13:41.578Z,28.87
2019-04-30T08:14:41.013Z,29.23
2019-04-30T08:15:42.354Z,29.63
2019-04-30T08:16:41.030Z,30.37
2019-04-30T08:17:41.027Z,30.82
2019-04-30T08:18:41.034Z,31.47
2019-04-30T08:19:41.219Z,32.03
2019-04-30T08:20:41.052Z,31.72
2019-04-30T08:21:41.062Z,30.96
2019-04-30T08:22:41.212Z,30.29
2019-04-30T08:23:41.079Z,28.21
2019-04-30T08:24:41.090Z,27.53
2019-04-30T08:25:41.093Z,28.42
2019-04-30T08:26:41.100Z,29.29
2019-04-30T08:27:41.107Z,29.23
2019-04-30T08:28:41.118Z,28.70
2019-04-30T08:29:41.128Z,29.11
2019-04-30T08:30:41.138Z,28.33
2019-04-30T08:31:41.144Z,28.27
2019-04-30T08:32:41.149Z,28.65
2019-04-30T08:33:41.164Z,28.94
2019-04-30T08:34:41.171Z,29.85
2019-04-30T08:35:41.187Z,30.42
2019-04-30T08:36:41.194Z,30.91
2019-04-30T08:37:41.197Z,31.69
2019-04-30T08:38:41.208Z,31.78
2019-04-30T08:39:41.217Z,29.97
2019-04-30T08:40:53.362Z,29.45
2019-04-30T08:41:41.241Z,29.35
2019-04-30T08:42:41.251Z,29.92
2019-04-30T08:43:41.260Z,30.94
2019-04-30T08:44:41.270Z,31.37
2019-04-30T08:45:41.276Z,30.60
2019-04-30T08:46:41.287Z,29.55
2019-04-30T08:47:41.306Z,29.95
2019-04-30T08:48:50.185Z,30.13
2019-04-30T08:49:41.602Z,30.19
2019-04-30T08:50:41.369Z,30.37
2019-04-30T08:51:41.630Z,30.10
2019-04-30T08:52:41.380Z,30.01
2019-04-30T08:53:41.434Z,29.89
2019-04-30T08:54:41.387Z,30.34
2019-04-30T08:55:41.398Z,30.76
2019-04-30T08:56:41.411Z,30.94
2019-04-30T08:57:41.429Z,30.46
2019-04-30T08:58:41.430Z,30.93
2019-04-30T08:59:41.441Z,31.68
2019-04-30T09:00:41.451Z,32.41
2019-04-30T09:01:41.468Z,32.99
2019-04-30T09:02:41.481Z,32.95
2019-04-30T09:03:41.491Z,33.06
2019-04-30T09:04:41.505Z,31.69
2019-04-30T09:05:41.520Z,31.04
2019-04-30T09:06:41.534Z,30.08
2019-04-30T09:07:41.549Z,30.36
2019-04-30T09:08:41.563Z,31.40
2019-04-30T09:09:44.496Z,32.47
2019-04-30T09:10:41.584Z,33.17
2019-04-30T09:11:51.741Z,33.09
2019-04-30T09:12:41.610Z,33.47
2019-04-30T09:13:41.649Z,33.77
2019-04-30T09:14:41.635Z,32.51
2019-04-30T09:15:41.651Z,32.21
2019-04-30T09:16:41.679Z,32.22
2019-04-30T09:17:41.673Z,32.51
2019-04-30T09:18:41.685Z,33.47
2019-04-30T09:19:41.705Z,33.84
2019-04-30T09:20:41.717Z,34.42
2019-04-30T09:21:41.727Z,35.05
2019-04-30T09:22:41.739Z,35.39
2019-04-30T09:23:49.413Z,34.87
2019-04-30T09:24:41.766Z,35.25
2019-04-30T09:25:41.782Z,34.45
2019-04-30T09:26:41.796Z,34.88
2019-04-30T09:27:41.811Z,35.54
2019-04-30T09:28:41.826Z,35.55
2019-04-30T09:29:44.519Z,35.66
2019-04-30T09:30:41.850Z,35.58
2019-04-30T09:31:41.868Z,35.10
2019-04-30T09:32:41.883Z,35.84
2019-04-30T09:33:41.901Z,35.84
2019-04-30T09:34:41.916Z,36.31
2019-04-30T09:35:41.927Z,34.83
2019-04-30T09:36:41.944Z,31.28
2019-04-30T09:37:41.997Z,30.51
2019-04-30T09:38:41.979Z,30.88
2019-04-30T09:39:41.989Z,31.15
2019-04-30T09:40:42.004Z,31.67
2019-04-30T09:41:42.013Z,32.56
2019-04-30T09:42:42.029Z,32.69
2019-04-30T09:43:42.045Z,32.77
2019-04-30T09:44:42.061Z,33.72
2019-04-30T09:45:42.079Z,33.93
2019-04-30T09:46:42.094Z,33.86
2019-04-30T09:47:42.197Z,34.03
2019-04-30T09:48:42.132Z,34.95
2019-04-30T09:49:42.138Z,35.99
2019-04-30T09:50:42.336Z,36.34
2019-04-30T09:51:42.447Z,37.02
2019-04-30T09:52:42.622Z,37.27
2019-04-30T09:53:42.201Z,35.87
2019-04-30T09:54:42.235Z,33.50
2019-04-30T09:55:42.229Z,32.81
2019-04-30T09:56:42.245Z,33.02
2019-04-30T09:57:42.265Z,31.54
2019-04-30T09:58:42.283Z,31.16
2019-04-30T09:59:42.298Z,30.76
2019-04-30T10:00:42.314Z,30.22
2019-04-30T10:01:42.329Z,30.49
2019-04-30T10:02:42.340Z,31.71
2019-04-30T10:03:42.889Z,32.29
2019-04-30T10:04:42.820Z,31.67
2019-04-30T10:05:42.388Z,32.16
2019-04-30T10:06:42.401Z,32.05
2019-04-30T10:07:42.412Z,31.79
2019-04-30T10:08:48.407Z,32.28
2019-04-30T10:09:42.444Z,32.39
2019-04-30T10:10:42.459Z,31.53
2019-04-30T10:11:42.470Z,31.79
2019-04-30T10:12:42.488Z,31.59
2019-04-30T10:13:42.492Z,31.87
2019-04-30T10:14:42.507Z,31.20
2019-04-30T10:15:42.525Z,31.22
2019-04-30T10:16:42.537Z,31.34
2019-04-30T10:17:42.555Z,31.10
2019-04-30T10:18:42.569Z,31.68
2019-04-30T10:19:42.581Z,31.67
2019-04-30T10:20:42.595Z,32.07
2019-04-30T10:21:42.606Z,32.65
2019-04-30T10:22:42.619Z,32.44
2019-04-30T10:23:42.639Z,32.43
2019-04-30T10:24:42.652Z,32.87
2019-04-30T10:25:42.665Z,33.34
2019-04-30T10:26:42.675Z,33.74
2019-04-30T10:27:42.716Z,34.30
2019-04-30T10:28:42.708Z,34.99
2019-04-30T10:29:42.723Z,35.58
2019-04-30T10:30:42.739Z,35.25
2019-04-30T10:31:42.753Z,33.89
2019-04-30T10:32:42.769Z,33.87
2019-04-30T10:33:42.777Z,33.94
2019-04-30T10:34:42.795Z,33.74
2019-04-30T10:35:42.804Z,33.56
2019-04-30T10:36:42.821Z,32.93
2019-04-30T10:37:42.841Z,33.26
2019-04-30T10:38:42.853Z,33.47
2019-04-30T10:39:42.906Z,33.86
2019-04-30T10:40:42.881Z,33.55
2019-04-30T10:41:42.898Z,32.28
2019-04-30T10:42:42.912Z,31.84
2019-04-30T10:43:42.928Z,31.72
2019-04-30T10:44:42.943Z,31.53
2019-04-30T10:45:42.954Z,31.71
2019-04-30T10:46:42.968Z,31.07
2019-04-30T10:47:42.985Z,30.86
2019-04-30T10:48:43.453Z,30.49
2019-04-30T10:49:43.021Z,30.79
2019-04-30T10:50:43.029Z,30.86
2019-04-30T10:51:43.041Z,31.23
2019-04-30T10:52:43.054Z,31.68
2019-04-30T10:53:43.065Z,31.68
2019-04-30T10:54:43.076Z,32.05
2019-04-30T10:55:43.097Z,32.21
2019-04-30T10:56:43.110Z,32.12
2019-04-30T10:57:43.117Z,32.29
2019-04-30T10:58:43.154Z,32.47
2019-04-30T10:59:43.149Z,31.47
2019-04-30T11:00:43.162Z,31.50
2019-04-30T11:01:43.179Z,31.49
2019-04-30T11:02:43.193Z,31.85
2019-04-30T11:03:43.209Z,32.27
2019-04-30T11:04:43.221Z,31.41
2019-04-30T11:05:43.229Z,29.99
2019-04-30T11:06:43.243Z,29.44
2019-04-30T11:07:43.254Z,28.85
2019-04-30T11:08:43.268Z,29.60
2019-04-30T11:09:43.323Z,30.42
2019-04-30T11:10:43.299Z,30.64
2019-04-30T11:11:43.308Z,31.20
2019-04-30T11:12:43.319Z,31.01
2019-04-30T11:13:43.353Z,30.53
2019-04-30T11:14:43.349Z,30.29
2019-04-30T11:15:43.381Z,29.95
2019-04-30T11:16:43.543Z,29.18
2019-04-30T11:17:43.597Z,28.72
2019-04-30T11:18:43.608Z,28.76
2019-04-30T11:19:43.600Z,28.61
2019-04-30T11:20:43.671Z,28.60
2019-04-30T11:21:43.576Z,28.20
2019-04-30T11:22:43.621Z,28.03
2019-04-30T11:23:43.719Z,27.46
2019-04-30T11:24:56.505Z,27.03
2019-04-30T11:25:44.038Z,26.69
2019-04-30T11:26:44.494Z,26.65
2019-04-30T11:27:44.063Z,26.69
2019-04-30T11:28:43.749Z,26.65
2019-04-30T11:29:43.768Z,26.79
2019-04-30T11:30:43.749Z,26.42
2019-04-30T11:31:43.709Z,25.91
2019-04-30T11:32:43.717Z,25.79
2019-04-30T11:33:43.778Z,25.56
2019-04-30T11:34:43.566Z,25.19
2019-04-30T11:35:43.575Z,25.08
2019-04-30T11:36:43.580Z,25.01
2019-04-30T11:37:43.582Z,25.16
2019-04-30T11:38:43.588Z,25.27
2019-04-30T11:39:43.599Z,25.30
2019-04-30T11:40:43.605Z,25.16
2019-04-30T11:41:43.615Z,24.77
2019-04-30T11:42:43.622Z,24.66
2019-04-30T11:43:43.623Z,24.36
2019-04-30T11:44:43.630Z,24.39
2019-04-30T11:45:43.638Z,24.45
2019-04-30T11:46:43.645Z,24.49
2019-04-30T11:47:52.995Z,23.99
2019-04-30T11:48:43.652Z,23.78
2019-04-30T11:49:43.653Z,23.23
2019-04-30T11:50:43.659Z,23.23
2019-04-30T11:51:43.662Z,22.96
2019-04-30T11:52:43.666Z,22.93
2019-04-30T11:53:43.674Z,23.16
2019-04-30T11:54:51.301Z,23.04
2019-04-30T11:55:43.686Z,23.04
2019-04-30T11:56:43.691Z,23.14
2019-04-30T11:57:43.691Z,23.26
2019-04-30T11:58:43.695Z,23.15
2019-04-30T11:59:43.701Z,23.41
2019-04-30T12:00:43.703Z,23.52
2019-04-30T12:01:43.703Z,23.56
2019-04-30T12:02:43.707Z,23.34
2019-04-30T12:03:43.707Z,23.44
2019-04-30T12:04:43.709Z,23.54
2019-04-30T12:05:43.720Z,23.54
2019-04-30T12:06:43.720Z,22.96
2019-04-30T12:07:43.725Z,22.27
2019-04-30T12:08:43.727Z,22.17
2019-04-30T12:09:43.726Z,22.14
2019-04-30T12:10:43.727Z,22.35
2019-04-30T12:11:43.732Z,22.45
2019-04-30T12:12:43.736Z,22.63
2019-04-30T12:13:43.741Z,22.79
2019-04-30T12:14:43.745Z,23.03
2019-04-30T12:15:43.743Z,23.14
2019-04-30T12:16:43.745Z,23.16
2019-04-30T12:17:43.750Z,23.41
2019-04-30T12:18:43.754Z,23.42
2019-04-30T12:19:43.754Z,23.53
2019-04-30T12:20:43.755Z,23.39
2019-04-30T12:21:43.754Z,22.86
2019-04-30T12:22:43.756Z,22.93
2019-04-30T12:23:43.761Z,23.03
2019-04-30T12:24:43.764Z,23.06
2019-04-30T12:25:43.772Z,23.14
2019-04-30T12:26:43.771Z,22.76
2019-04-30T12:27:43.773Z,22.69
2019-04-30T12:28:43.775Z,22.63
2019-04-30T12:29:43.771Z,22.86
2019-04-30T12:30:43.774Z,22.89
2019-04-30T12:31:43.781Z,22.85
2019-04-30T12:32:43.784Z,22.75
2019-04-30T12:33:43.785Z,22.56
2019-04-30T12:34:43.787Z,22.56
2019-04-30T12:35:43.789Z,22.59
2019-04-30T12:36:43.792Z,22.85
2019-04-30T12:37:43.795Z,23.12
2019-04-30T12:38:43.798Z,23.15
2019-04-30T12:39:43.799Z,23.34
2019-04-30T12:40:43.808Z,23.38
2019-04-30T12:41:43.800Z,23.54
2019-04-30T12:42:43.803Z,23.54
2019-04-30T12:43:43.802Z,23.67
2019-04-30T12:44:43.804Z,23.68
2019-04-30T12:45:43.810Z,23.47
2019-04-30T12:46:43.812Z,22.96
2019-04-30T12:47:43.812Z,23.11
2019-04-30T12:48:43.815Z,22.88
2019-04-30T12:49:43.819Z,22.75
2019-04-30T12:50:43.822Z,22.69
2019-04-30T12:51:45.935Z,22.89
2019-04-30T12:52:43.828Z,22.81